Time;durP1;ratioP1;P1;durP2;ratioP2;P2;SDS_P1;SDS_P2;PMS_P1;PMS_P2;Temp;Humidity;BMP_temperature;BMP_pressure;BME280_temperature;BME280_humidity;BME280_pressure;Samples;Min_cycle;Max_cycle;Signal;HPM_P1;HPM_P2
2022/03/15 00:00:08;;;;;;;32.20;19.58;;;5.10;99.90;;;;;;5033664;28;20221;-59
2022/03/15 00:02:35;;;;;;;28.88;17.92;;;5.10;99.90;;;;;;5033630;28;20214;-59
2022/03/15 00:05:02;;;;;;;30.88;20.05;;;5.10;99.90;;;;;;5033419;28;20197;-60
2022/03/15 00:07:29;;;;;;;28.08;19.98;;;5.00;99.90;;;;;;5033662;28;20229;-61
2022/03/15 00:09:56;;;;;;;28.85;19.10;;;5.00;99.90;;;;;;5033567;28;20208;-60
2022/03/15 00:12:25;;;;;;;33.83;19.58;;;5.00;99.90;;;;;;5033350;28;20206;-60
2022/03/15 00:14:52;;;;;;;27.75;19.65;;;4.90;99.90;;;;;;5033092;28;20257;-60
2022/03/15 00:17:20;;;;;;;29.05;18.77;;;4.90;99.90;;;;;;5033232;28;20312;-59
2022/03/15 00:19:47;;;;;;;32.25;21.65;;;4.90;99.90;;;;;;5033571;28;20205;-59
2022/03/15 00:22:14;;;;;;;30.50;21.15;;;4.90;99.90;;;;;;5033209;28;20209;-60
2022/03/15 00:24:42;;;;;;;33.38;20.17;;;4.80;99.90;;;;;;5041086;28;20247;-60
2022/03/15 00:27:10;;;;;;;33.20;20.70;;;4.80;99.90;;;;;;5045489;28;20206;-60
2022/03/15 00:29:39;;;;;;;32.67;21.13;;;4.80;99.90;;;;;;5039337;28;20183;-60
2022/03/15 00:32:08;;;;;;;32.15;20.70;;;4.80;99.90;;;;;;5037345;28;20678;-60
2022/03/15 00:34:35;;;;;;;29.98;21.15;;;4.70;99.90;;;;;;5037378;28;20765;-60
2022/03/15 00:37:02;;;;;;;36.95;21.55;;;4.70;99.90;;;;;;5037389;28;20202;-60
2022/03/15 00:39:29;;;;;;;37.83;23.33;;;4.70;99.90;;;;;;5037588;28;20208;-59
2022/03/15 00:41:57;;;;;;;37.83;21.75;;;4.70;99.90;;;;;;5037548;28;20210;-61
2022/03/15 00:44:24;;;;;;;36.65;22.27;;;4.70;99.90;;;;;;5037432;28;20210;-60
2022/03/15 00:46:53;;;;;;;35.42;23.25;;;4.70;99.90;;;;;;5036919;28;20706;-59
2022/03/15 00:49:20;;;;;;;37.00;23.92;;;4.70;99.90;;;;;;5037001;28;20202;-61
2022/03/15 00:51:47;;;;;;;40.25;24.63;;;4.70;99.90;;;;;;5037288;28;20198;-60
2022/03/15 00:54:14;;;;;;;31.42;21.60;;;4.60;99.90;;;;;;5037179;28;20229;-60
2022/03/15 00:56:41;;;;;;;35.50;23.33;;;4.60;99.90;;;;;;5037052;28;20210;-60
2022/03/15 00:59:09;;;;;;;36.60;21.77;;;4.50;99.90;;;;;;5037078;28;20227;-60
2022/03/15 01:01:37;;;;;;;35.78;22.52;;;4.50;99.90;;;;;;5036779;28;20199;-60
2022/03/15 01:04:06;;;;;;;35.35;22.55;;;4.50;99.90;;;;;;5036593;28;20202;-60
2022/03/15 01:06:34;;;;;;;39.95;25.08;;;4.50;99.90;;;;;;5036367;28;20202;-60
2022/03/15 01:09:02;;;;;;;39.30;22.80;;;4.50;99.90;;;;;;5036472;28;20214;-60
2022/03/15 01:11:29;;;;;;;37.05;22.73;;;4.50;99.90;;;;;;5036452;28;20209;-60
2022/03/15 01:13:56;;;;;;;40.00;24.17;;;4.40;99.90;;;;;;5036650;28;20237;-59
2022/03/15 01:16:23;;;;;;;31.63;22.25;;;4.40;99.90;;;;;;5036542;28;20209;-60
2022/03/15 01:18:50;;;;;;;38.30;24.85;;;4.40;99.90;;;;;;5036387;28;20234;-59
2022/03/15 01:21:19;;;;;;;40.95;25.50;;;4.50;99.90;;;;;;5036355;28;20210;-60
2022/03/15 01:23:46;;;;;;;44.75;27.83;;;4.40;99.90;;;;;;5036324;28;20560;-60
2022/03/15 01:26:14;;;;;;;45.45;26.55;;;4.50;99.90;;;;;;5036026;28;20675;-59
2022/03/15 01:28:42;;;;;;;46.83;27.67;;;4.50;99.90;;;;;;5035778;28;20284;-60
2022/03/15 01:31:11;;;;;;;41.30;25.80;;;4.50;99.90;;;;;;5035928;28;20206;-60
2022/03/15 01:33:38;;;;;;;45.28;27.38;;;4.60;99.90;;;;;;5035997;28;20257;-60
2022/03/15 01:36:06;;;;;;;43.38;26.55;;;4.60;99.90;;;;;;5035402;28;20222;-59
2022/03/15 01:38:35;;;;;;;42.92;24.35;;;4.60;99.90;;;;;;5038838;28;20257;-60
2022/03/15 01:41:02;;;;;;;41.08;24.95;;;4.50;99.90;;;;;;5054920;28;20198;-60
2022/03/15 01:43:29;;;;;;;45.08;26.73;;;4.50;99.90;;;;;;5045471;28;20202;-60
2022/03/15 01:45:56;;;;;;;45.42;25.95;;;4.40;99.90;;;;;;5036236;28;20207;-60
2022/03/15 01:48:24;;;;;;;43.47;26.40;;;4.40;99.90;;;;;;5035777;28;20230;-59
2022/03/15 01:50:51;;;;;;;36.60;25.08;;;4.40;99.90;;;;;;5035874;28;20229;-60
2022/03/15 01:53:18;;;;;;;40.80;24.30;;;4.40;99.90;;;;;;5035781;28;20206;-59
2022/03/15 01:55:47;;;;;;;39.95;24.40;;;4.30;99.90;;;;;;5035463;28;20242;-60
2022/03/15 01:58:14;;;;;;;41.75;26.48;;;4.30;99.90;;;;;;5035636;28;20231;-60
2022/03/15 02:00:41;;;;;;;40.97;23.58;;;4.30;99.90;;;;;;5035638;28;20209;-60
2022/03/15 02:03:08;;;;;;;41.78;25.90;;;4.30;99.90;;;;;;5035312;28;20206;-59
2022/03/15 02:05:35;;;;;;;39.03;23.25;;;4.30;99.90;;;;;;5035548;28;20612;-60
2022/03/15 02:08:10;;;;;;;46.15;27.55;;;4.30;99.90;;;;;;5034970;28;20217;-59
2022/03/15 02:10:37;;;;;;;42.17;25.98;;;4.30;99.90;;;;;;5035231;28;20314;-60
2022/03/15 02:13:05;;;;;;;44.45;27.42;;;4.30;99.90;;;;;;5035239;28;20213;-60
2022/03/15 02:15:32;;;;;;;45.13;25.65;;;4.30;99.90;;;;;;5035249;28;20222;-60
2022/03/15 02:18:00;;;;;;;44.00;28.00;;;4.30;99.90;;;;;;5035477;28;20222;-60
2022/03/15 02:20:28;;;;;;;44.35;25.58;;;4.30;99.90;;;;;;5035349;28;20264;-60
2022/03/15 02:22:56;;;;;;;46.35;28.08;;;4.30;99.90;;;;;;5034834;28;20202;-60
2022/03/15 02:25:24;;;;;;;42.72;25.50;;;4.20;99.90;;;;;;5035207;28;20198;-60
2022/03/15 02:27:51;;;;;;;39.90;25.20;;;4.20;99.90;;;;;;5035405;28;20230;-60
2022/03/15 02:30:18;;;;;;;38.53;24.50;;;4.20;99.90;;;;;;5035927;28;20293;-60
2022/03/15 02:32:47;;;;;;;39.40;23.85;;;4.20;99.90;;;;;;5035896;28;20209;-60
2022/03/15 02:35:15;;;;;;;42.55;25.92;;;4.20;99.90;;;;;;5036939;28;20230;-61
2022/03/15 02:37:43;;;;;;;46.78;28.85;;;4.10;99.90;;;;;;5037340;28;20226;-60
2022/03/15 02:40:11;;;;;;;43.92;26.80;;;4.10;99.90;;;;;;5038705;28;20202;-59
2022/03/15 02:42:38;;;;;;;40.15;25.90;;;4.10;99.90;;;;;;5038999;28;20229;-60
2022/03/15 02:45:06;;;;;;;50.40;27.92;;;4.10;99.90;;;;;;5037973;28;20214;-60
2022/03/15 02:47:33;;;;;;;43.67;26.65;;;4.10;99.90;;;;;;5035494;28;20222;-59
2022/03/15 02:50:00;;;;;;;40.92;27.08;;;4.10;99.90;;;;;;5035899;28;20667;-59
2022/03/15 02:52:28;;;;;;;45.25;27.15;;;4.10;99.90;;;;;;5035961;28;20304;-59
2022/03/15 02:54:58;;;;;;;44.20;25.90;;;4.10;99.90;;;;;;5036129;28;20218;-60
2022/03/15 02:57:25;;;;;;;44.92;27.75;;;4.00;99.90;;;;;;5036743;28;20647;-60
2022/03/15 02:59:52;;;;;;;42.63;27.35;;;4.10;99.90;;;;;;5036996;28;20238;-59
2022/03/15 03:02:20;;;;;;;44.88;26.20;;;4.00;99.90;;;;;;5043490;28;20221;-60
2022/03/15 03:04:47;;;;;;;45.72;26.83;;;4.00;99.90;;;;;;5051229;28;20199;-59
2022/03/15 03:07:17;;;;;;;51.13;28.58;;;4.10;99.90;;;;;;5042001;28;20226;-60
2022/03/15 03:09:44;;;;;;;43.40;25.10;;;4.10;99.90;;;;;;5041029;28;20202;-59
2022/03/15 03:12:16;;;;;;;45.28;24.35;;;4.10;99.90;;;;;;5045628;28;20198;-60
2022/03/15 03:14:45;;;;;;;44.15;27.02;;;4.10;99.90;;;;;;5052641;28;20210;-60
2022/03/15 03:17:13;;;;;;;41.83;24.85;;;4.10;99.90;;;;;;5053963;28;20218;-60
2022/03/15 03:19:40;;;;;;;40.42;25.20;;;4.10;99.90;;;;;;5050160;28;20209;-60
2022/03/15 03:22:07;;;;;;;42.88;25.42;;;4.10;99.90;;;;;;5038024;28;20256;-59
2022/03/15 03:24:34;;;;;;;39.78;24.70;;;4.10;99.90;;;;;;5034277;28;20297;-60
2022/03/15 03:27:02;;;;;;;42.30;26.00;;;4.10;99.90;;;;;;5034171;28;20206;-59
2022/03/15 03:29:32;;;;;;;39.30;24.30;;;4.10;99.90;;;;;;5034556;28;20191;-60
2022/03/15 03:31:59;;;;;;;42.78;27.05;;;4.10;99.90;;;;;;5035137;28;20202;-60
2022/03/15 03:34:26;;;;;;;46.33;25.83;;;4.10;99.90;;;;;;5042006;28;20206;-60
2022/03/15 03:36:53;;;;;;;39.90;26.15;;;4.10;99.90;;;;;;5052287;28;20202;-58
2022/03/15 03:39:20;;;;;;;37.55;25.52;;;4.20;99.90;;;;;;5046288;28;20205;-59
2022/03/15 03:41:47;;;;;;;36.30;22.75;;;4.20;99.90;;;;;;5037778;28;20198;-60
2022/03/15 03:44:15;;;;;;;44.70;25.48;;;4.20;99.90;;;;;;5045371;28;20203;-59
2022/03/15 03:46:43;;;;;;;46.83;26.05;;;4.20;99.90;;;;;;5042837;28;20194;-59
2022/03/15 03:49:10;;;;;;;37.58;24.08;;;4.20;99.90;;;;;;5048955;28;20225;-60
2022/03/15 03:51:37;;;;;;;44.13;24.73;;;4.20;99.90;;;;;;5051201;28;20236;-60
2022/03/15 03:54:05;;;;;;;46.03;24.60;;;4.20;99.90;;;;;;5051534;28;20207;-59
2022/03/15 03:56:33;;;;;;;36.25;23.65;;;4.20;99.90;;;;;;5052748;28;20236;-60
2022/03/15 03:59:00;;;;;;;46.03;25.80;;;4.20;99.90;;;;;;5050908;28;20222;-60
2022/03/15 04:01:27;;;;;;;35.92;22.45;;;4.20;99.90;;;;;;5047821;28;20206;-59
2022/03/15 04:03:57;;;;;;;40.65;24.13;;;4.20;99.90;;;;;;5049732;28;20206;-60
2022/03/15 04:09:27;;;;;;;38.10;23.70;;;4.20;99.90;;;;;;5112190;27;20546;-59
2022/03/15 04:11:54;;;;;;;35.58;22.08;;;4.20;99.90;;;;;;5110814;28;20230;-60
2022/03/15 04:14:22;;;;;;;35.67;22.08;;;4.20;99.90;;;;;;5098140;28;20250;-60
2022/03/15 04:16:49;;;;;;;37.30;23.25;;;4.30;99.90;;;;;;5094746;28;20223;-60
2022/03/15 04:19:16;;;;;;;34.45;21.98;;;4.30;99.90;;;;;;5076191;28;20200;-60
2022/03/15 04:21:44;;;;;;;38.60;23.60;;;4.30;99.90;;;;;;5076443;28;20227;-60
2022/03/15 04:24:12;;;;;;;42.00;23.25;;;4.30;99.90;;;;;;5077149;28;20224;-60
2022/03/15 04:26:42;;;;;;;32.78;21.75;;;4.30;99.90;;;;;;5087005;28;20208;-59
2022/03/15 04:29:09;;;;;;;40.55;23.65;;;4.30;99.90;;;;;;5086418;28;20228;-60
2022/03/15 04:31:36;;;;;;;39.88;23.48;;;4.40;99.90;;;;;;5086417;28;20201;-59
2022/03/15 04:34:03;;;;;;;37.80;20.50;;;4.40;99.90;;;;;;5087040;28;20205;-60
2022/03/15 04:36:30;;;;;;;34.80;20.98;;;4.40;99.90;;;;;;5086801;28;20201;-59
2022/03/15 04:38:58;;;;;;;39.35;22.25;;;4.40;99.90;;;;;;5077855;28;20221;-60
2022/03/15 04:41:26;;;;;;;33.72;21.70;;;4.40;99.90;;;;;;5073823;28;20677;-60
2022/03/15 04:43:55;;;;;;;35.50;22.85;;;4.40;99.90;;;;;;5072061;28;20570;-60
2022/03/15 04:46:22;;;;;;;39.38;23.20;;;4.40;99.90;;;;;;5070185;28;20205;-59
2022/03/15 04:48:49;;;;;;;42.95;23.30;;;4.40;99.90;;;;;;5069991;28;20256;-61
2022/03/15 04:51:17;;;;;;;32.92;19.90;;;4.40;99.90;;;;;;5063453;28;20235;-60
2022/03/15 04:53:44;;;;;;;32.80;22.00;;;4.40;99.90;;;;;;5069533;28;20205;-59
2022/03/15 04:56:11;;;;;;;34.22;21.10;;;4.50;99.90;;;;;;5069914;28;20204;-60
2022/03/15 04:58:38;;;;;;;32.53;19.95;;;4.50;99.90;;;;;;5069715;28;20736;-61
2022/03/15 05:01:07;;;;;;;35.58;21.60;;;4.50;99.90;;;;;;5070152;28;20251;-60
2022/03/15 05:03:35;;;;;;;34.75;20.98;;;4.50;99.90;;;;;;5070191;28;20209;-59
2022/03/15 05:06:03;;;;;;;35.42;21.92;;;4.50;99.90;;;;;;5069332;28;20288;-59
2022/03/15 05:08:30;;;;;;;35.53;21.42;;;4.50;99.90;;;;;;5069033;28;20225;-60
2022/03/15 05:11:09;;;;;;;32.55;18.77;;;4.50;99.90;;;;;;5069222;28;20574;-60
2022/03/15 05:13:39;;;;;;;34.83;22.08;;;4.50;99.90;;;;;;5069214;28;20627;-60
2022/03/15 05:16:09;;;;;;;35.40;21.40;;;4.50;99.90;;;;;;5069473;28;20182;-59
2022/03/15 05:18:37;;;;;;;35.92;21.75;;;4.50;99.90;;;;;;5068850;28;20324;-59
2022/03/15 05:21:04;;;;;;;31.42;21.00;;;4.50;99.90;;;;;;5055420;28;20205;-60
2022/03/15 05:23:31;;;;;;;30.55;19.80;;;4.50;99.90;;;;;;5059087;28;20673;-59
2022/03/15 05:25:59;;;;;;;33.88;19.85;;;4.50;99.90;;;;;;5059983;28;20214;-60
2022/03/15 05:28:26;;;;;;;34.22;22.08;;;4.50;99.90;;;;;;5062687;28;20619;-61
2022/03/15 05:30:53;;;;;;;34.88;21.27;;;4.50;99.90;;;;;;5069317;28;20209;-59
2022/03/15 05:33:21;;;;;;;34.22;21.35;;;4.50;99.90;;;;;;5068197;28;20214;-60
2022/03/15 05:35:49;;;;;;;31.65;20.60;;;4.60;99.90;;;;;;5062459;28;20202;-60
2022/03/15 05:38:16;;;;;;;36.28;20.60;;;4.60;99.90;;;;;;5060397;28;20249;-60
2022/03/15 05:40:43;;;;;;;35.47;21.63;;;4.60;99.90;;;;;;5066058;28;20198;-60
2022/03/15 05:43:11;;;;;;;39.90;20.42;;;4.60;99.90;;;;;;5066109;28;20213;-62
2022/03/15 05:45:38;;;;;;;31.23;19.70;;;4.60;99.90;;;;;;5067909;28;20202;-60
2022/03/15 05:48:06;;;;;;;36.80;22.35;;;4.60;99.90;;;;;;5066780;28;20240;-61
2022/03/15 05:50:34;;;;;;;34.00;20.30;;;4.70;99.90;;;;;;5061836;28;20230;-60
2022/03/15 05:53:03;;;;;;;31.42;19.60;;;4.70;99.90;;;;;;5071604;28;20212;-60
2022/03/15 05:55:30;;;;;;;32.38;20.23;;;4.70;99.90;;;;;;5067187;28;20244;-60
2022/03/15 05:57:58;;;;;;;28.35;20.05;;;4.70;99.90;;;;;;5061955;28;20225;-61
2022/03/15 06:00:25;;;;;;;29.23;18.83;;;4.80;99.90;;;;;;5060301;28;20206;-60
2022/03/15 06:02:52;;;;;;;31.13;19.70;;;4.80;99.90;;;;;;5059785;28;20224;-59
2022/03/15 06:05:19;;;;;;;32.78;20.13;;;4.80;99.90;;;;;;5058967;28;20237;-59
2022/03/15 06:07:49;;;;;;;34.38;21.17;;;4.80;99.90;;;;;;5056727;28;20317;-58
2022/03/15 06:10:18;;;;;;;29.63;19.70;;;4.90;99.90;;;;;;5056654;28;20228;-59
2022/03/15 06:12:46;;;;;;;32.40;20.48;;;4.90;99.90;;;;;;5056677;28;20224;-59
2022/03/15 06:15:13;;;;;;;31.00;19.10;;;5.00;99.90;;;;;;5056343;28;20206;-59
2022/03/15 06:17:48;;;;;;;28.70;19.08;;;5.00;99.90;;;;;;5056284;28;20636;-59
2022/03/15 06:20:17;;;;;;;32.50;19.90;;;5.00;99.90;;;;;;5056648;28;20205;-60
2022/03/15 06:22:47;;;;;;;28.40;19.38;;;5.10;99.90;;;;;;5056451;28;20209;-60
2022/03/15 06:25:15;;;;;;;33.25;20.23;;;5.10;99.90;;;;;;5056426;28;20691;-59
2022/03/15 06:27:43;;;;;;;29.60;19.70;;;5.20;99.90;;;;;;5056615;28;20709;-60
2022/03/15 06:30:12;;;;;;;24.58;17.80;;;5.20;99.90;;;;;;5056557;28;20198;-58
2022/03/15 06:32:39;;;;;;;28.83;19.92;;;5.30;99.90;;;;;;5055761;28;20208;-60
2022/03/15 06:35:09;;;;;;;29.52;18.83;;;5.40;99.90;;;;;;5056842;28;20575;-60
2022/03/15 06:37:42;;;;;;;26.95;17.60;;;5.40;99.90;;;;;;5056069;28;20218;-59
2022/03/15 06:40:12;;;;;;;32.10;20.25;;;5.50;99.90;;;;;;5057260;28;20255;-60
2022/03/15 06:42:47;;;;;;;31.48;19.45;;;5.60;99.90;;;;;;5057070;28;20642;-59
2022/03/15 06:45:15;;;;;;;25.98;17.55;;;5.60;99.90;;;;;;5056030;28;20690;-59
2022/03/15 06:47:42;;;;;;;27.67;17.48;;;5.70;99.90;;;;;;5056066;28;20704;-59
2022/03/15 06:50:12;;;;;;;24.15;17.73;;;5.80;99.90;;;;;;5056525;28;20390;-60
2022/03/15 06:52:40;;;;;;;22.73;16.25;;;5.90;99.90;;;;;;5059257;28;20202;-60
2022/03/15 06:55:10;;;;;;;24.25;16.67;;;6.00;99.90;;;;;;5060210;28;20229;-60
2022/03/15 06:57:38;;;;;;;24.85;16.45;;;6.10;99.90;;;;;;5060055;28;20300;-59
2022/03/15 07:00:08;;;;;;;26.92;18.52;;;6.10;99.90;;;;;;5058398;28;20234;-59
2022/03/15 07:02:35;;;;;;;21.20;14.15;;;6.20;99.90;;;;;;5056115;28;20208;-60
2022/03/15 07:05:03;;;;;;;19.98;15.25;;;6.30;99.90;;;;;;5054741;28;20296;-58
2022/03/15 07:07:31;;;;;;;21.38;14.70;;;6.40;99.90;;;;;;5054850;28;20316;-61
2022/03/15 07:09:58;;;;;;;22.73;15.07;;;6.50;99.90;;;;;;5055635;28;20248;-59
2022/03/15 07:12:26;;;;;;;24.38;15.13;;;6.60;99.90;;;;;;5055389;28;20217;-59
2022/03/15 07:14:53;;;;;;;19.83;14.60;;;6.60;99.90;;;;;;5066746;28;20201;-59
2022/03/15 07:17:21;;;;;;;18.85;14.18;;;6.70;99.90;;;;;;5064515;28;20304;-61
2022/03/15 07:19:48;;;;;;;18.17;14.25;;;6.80;99.90;;;;;;5055594;28;20216;-59
2022/03/15 07:22:15;;;;;;;20.38;14.70;;;6.90;99.90;;;;;;5055546;28;20574;-59
2022/03/15 07:24:42;;;;;;;24.05;15.27;;;7.00;99.90;;;;;;5055061;28;20700;-59
2022/03/15 07:27:09;;;;;;;20.33;15.10;;;7.10;99.90;;;;;;5055692;28;20201;-58
2022/03/15 07:29:37;;;;;;;20.33;14.52;;;7.20;99.90;;;;;;5058083;28;20293;-60
2022/03/15 07:32:05;;;;;;;23.20;15.30;;;7.30;99.90;;;;;;5058761;28;20217;-59
2022/03/15 07:34:33;;;;;;;20.23;14.75;;;7.40;99.90;;;;;;5055771;28;20729;-60
2022/03/15 07:37:00;;;;;;;18.33;13.73;;;7.40;99.90;;;;;;5057117;28;20205;-59
2022/03/15 07:39:27;;;;;;;21.58;14.13;;;7.50;99.90;;;;;;5056744;28;20193;-60
2022/03/15 07:41:54;;;;;;;20.20;14.75;;;7.60;99.90;;;;;;5055874;28;20208;-59
2022/03/15 07:44:21;;;;;;;18.88;13.18;;;7.60;99.90;;;;;;5057585;28;20201;-58
2022/03/15 07:46:50;;;;;;;19.05;13.77;;;7.70;99.90;;;;;;5058311;28;20197;-60
2022/03/15 07:49:18;;;;;;;23.15;14.80;;;7.70;99.90;;;;;;5056391;28;20221;-61
2022/03/15 07:51:45;;;;;;;17.60;14.65;;;7.70;99.90;;;;;;5055909;28;20698;-61
2022/03/15 07:54:12;;;;;;;17.65;13.32;;;7.80;99.90;;;;;;5056797;28;20223;-62
2022/03/15 07:56:40;;;;;;;16.55;12.98;;;7.90;99.90;;;;;;5056773;28;20210;-61
2022/03/15 07:59:08;;;;;;;21.52;13.80;;;8.00;99.90;;;;;;5055123;28;20217;-60
2022/03/15 08:01:35;;;;;;;18.48;13.50;;;8.10;99.90;;;;;;5054738;28;20201;-60
2022/03/15 08:04:04;;;;;;;15.05;11.75;;;8.10;99.90;;;;;;5056046;28;20228;-60
2022/03/15 08:06:31;;;;;;;19.42;13.13;;;8.10;99.90;;;;;;5055542;28;20273;-58
2022/03/15 08:08:59;;;;;;;17.88;13.10;;;8.20;99.90;;;;;;5055173;28;20689;-61
2022/03/15 08:11:26;;;;;;;17.65;12.88;;;8.30;99.90;;;;;;5060385;28;20204;-61
2022/03/15 08:13:54;;;;;;;14.43;11.52;;;8.40;99.90;;;;;;5060622;28;20201;-61
2022/03/15 08:16:22;;;;;;;17.88;12.48;;;8.50;99.90;;;;;;5064291;28;20233;-61
2022/03/15 08:18:50;;;;;;;18.15;13.57;;;8.60;99.90;;;;;;5062223;28;20221;-62
2022/03/15 08:21:19;;;;;;;19.57;13.13;;;8.80;99.90;;;;;;5066799;28;20197;-61
2022/03/15 08:23:46;;;;;;;14.30;10.80;;;9.00;99.90;;;;;;5069211;28;20448;-62
2022/03/15 08:26:14;;;;;;;17.80;12.80;;;9.00;99.90;;;;;;5069439;28;20451;-61
2022/03/15 08:28:41;;;;;;;13.98;10.52;;;9.20;99.90;;;;;;5066438;28;20483;-61
2022/03/15 08:31:09;;;;;;;16.43;12.03;;;9.20;99.90;;;;;;5064032;28;20197;-60
2022/03/15 08:33:36;;;;;;;18.20;13.10;;;9.20;99.90;;;;;;5064176;28;20467;-62
2022/03/15 08:36:03;;;;;;;16.07;12.37;;;9.30;99.90;;;;;;5065750;28;20436;-60
2022/03/15 08:38:31;;;;;;;13.70;11.30;;;9.40;99.90;;;;;;5067088;28;20463;-61
2022/03/15 08:40:59;;;;;;;17.70;11.60;;;9.50;99.90;;;;;;5061698;28;20520;-62
2022/03/15 08:43:26;;;;;;;16.00;12.03;;;9.50;99.90;;;;;;5064936;28;20444;-61
2022/03/15 08:45:53;;;;;;;16.07;11.57;;;9.60;99.90;;;;;;5061828;28;20447;-60
2022/03/15 08:48:21;;;;;;;14.90;11.27;;;9.70;99.90;;;;;;5064360;28;20472;-61
2022/03/15 08:50:48;;;;;;;16.67;10.30;;;9.80;99.90;;;;;;5061215;28;20511;-61
2022/03/15 08:53:15;;;;;;;12.30;10.87;;;9.90;99.90;;;;;;5057425;28;20940;-61
2022/03/15 08:55:44;;;;;;;19.13;11.83;;;10.00;99.90;;;;;;5059962;28;20448;-59
2022/03/15 08:58:11;;;;;;;16.00;11.03;;;10.10;99.90;;;;;;5058389;28;20467;-61
2022/03/15 09:00:38;;;;;;;12.93;10.87;;;10.10;99.90;;;;;;5058424;28;20458;-60
2022/03/15 09:03:06;;;;;;;12.87;10.57;;;10.30;99.90;;;;;;5058055;28;20448;-61
2022/03/15 09:05:33;;;;;;;15.77;12.07;;;10.40;99.90;;;;;;5058449;28;20452;-59
2022/03/15 09:08:00;;;;;;;13.57;10.77;;;10.50;99.90;;;;;;5057690;28;20483;-60
2022/03/15 09:10:27;;;;;;;16.47;10.00;;;10.70;99.90;;;;;;5065428;28;20495;-61
2022/03/15 09:12:56;;;;;;;16.93;12.20;;;10.80;99.90;;;;;;5070596;28;20443;-61
2022/03/15 09:15:25;;;;;;;14.40;9.53;;;10.90;99.90;;;;;;5071168;28;20444;-61
2022/03/15 09:17:52;;;;;;;13.80;10.83;;;11.00;99.90;;;;;;5062903;28;20948;-58
2022/03/15 09:20:19;;;;;;;13.90;11.53;;;11.10;99.90;;;;;;5060358;28;20440;-61
2022/03/15 09:22:46;;;;;;;14.17;10.33;;;11.20;99.70;;;;;;5059840;28;20959;-60
2022/03/15 09:25:13;;;;;;;13.67;10.43;;;11.30;99.10;;;;;;5059583;28;20448;-59
2022/03/15 09:27:40;;;;;;;15.63;11.27;;;11.40;98.70;;;;;;5059268;28;20474;-60
2022/03/15 09:30:09;;;;;;;12.20;9.10;;;11.40;98.30;;;;;;5059275;28;20479;-59
2022/03/15 09:32:36;;;;;;;13.93;10.70;;;11.50;97.90;;;;;;5058631;28;20471;-60
2022/03/15 09:35:04;;;;;;;11.70;10.50;;;11.60;97.60;;;;;;5059991;28;20542;-59
2022/03/15 09:37:31;;;;;;;16.43;11.10;;;11.60;97.30;;;;;;5057620;28;20494;-60
2022/03/15 09:39:59;;;;;;;12.73;10.80;;;11.60;96.90;;;;;;5057342;28;20948;-59
2022/03/15 09:42:29;;;;;;;13.50;11.53;;;11.70;96.70;;;;;;5057435;28;20471;-59
2022/03/15 09:44:58;;;;;;;12.50;8.90;;;11.80;96.40;;;;;;5057006;28;20436;-60
2022/03/15 09:47:32;;;;;;;9.67;8.60;;;11.90;95.90;;;;;;5056802;28;20464;-61
2022/03/15 09:50:00;;;;;;;9.40;8.37;;;12.00;95.50;;;;;;5057208;28;20840;-60
2022/03/15 09:52:28;;;;;;;12.73;9.73;;;12.20;95.10;;;;;;5057161;28;20444;-59
2022/03/15 09:54:57;;;;;;;11.07;9.13;;;12.20;94.30;;;;;;5057698;28;20444;-61
2022/03/15 09:57:24;;;;;;;9.70;8.60;;;12.20;94.00;;;;;;5056588;28;20460;-59
2022/03/15 09:59:52;;;;;;;10.77;8.47;;;12.30;94.00;;;;;;5057304;28;20441;-60
2022/03/15 10:02:20;;;;;;;11.00;8.33;;;12.40;93.60;;;;;;5057503;28;20454;-59
2022/03/15 10:04:50;;;;;;;9.27;8.20;;;12.50;93.00;;;;;;5057378;28;20451;-60
2022/03/15 10:07:18;;;;;;;9.67;8.00;;;12.60;92.50;;;;;;5056564;28;20467;-59
2022/03/15 10:09:45;;;;;;;9.90;7.90;;;12.70;92.00;;;;;;5056588;28;20893;-59
2022/03/15 10:12:12;;;;;;;9.53;8.13;;;12.80;91.70;;;;;;5061231;28;20466;-59
2022/03/15 10:14:44;;;;;;;9.70;7.10;;;12.90;91.20;;;;;;5058768;28;20460;-59
2022/03/15 10:17:14;;;;;;;9.63;7.47;;;13.00;90.60;;;;;;5059368;28;20468;-60
2022/03/15 10:19:52;;;;;;;9.03;7.00;;;13.10;90.20;;;;;;5058843;28;20467;-59
2022/03/15 10:22:22;;;;;;;9.10;7.60;;;13.20;89.20;;;;;;5063121;22;20528;-55
2022/03/15 10:24:49;;;;;;;8.97;7.10;;;13.30;88.00;;;;;;5034677;28;20859;-55
2022/03/15 10:27:17;;;;;;;9.47;8.10;;;13.40;86.60;;;;;;5034381;28;20454;-55
2022/03/15 10:29:45;;;;;;;17.00;8.67;;;13.50;85.20;;;;;;5034635;28;20484;-56
2022/03/15 10:32:12;;;;;;;18.00;8.03;;;13.50;84.40;;;;;;5035080;28;20461;-55
2022/03/15 10:34:39;;;;;;;11.18;8.00;;;13.60;84.00;;;;;;5035407;28;20446;-57
2022/03/15 10:37:08;;;;;;;11.97;8.53;;;13.60;81.50;;;;;;5035036;28;20682;-54
2022/03/15 10:39:36;;;;;;;12.80;8.60;;;13.70;81.20;;;;;;5034411;28;20453;-56
2022/03/15 10:42:07;;;;;;;10.67;8.83;;;13.80;80.80;;;;;;5034104;28;20519;-54
2022/03/15 10:44:37;;;;;;;12.10;9.00;;;13.80;80.40;;;;;;5033768;28;20441;-55
2022/03/15 10:47:07;;;;;;;10.57;9.43;;;13.90;79.40;;;;;;5034267;28;20206;-55
2022/03/15 10:49:47;;;;;;;11.55;9.82;;;14.00;79.40;;;;;;5033881;28;20449;-55
2022/03/15 10:52:28;;;;;;;13.40;9.30;;;14.00;78.70;;;;;;5034312;28;20280;-55
2022/03/15 10:54:55;;;;;;;15.20;9.37;;;14.10;78.40;;;;;;5033876;28;20913;-58
2022/03/15 10:57:22;;;;;;;11.00;9.00;;;14.10;78.20;;;;;;5033899;28;20441;-57
2022/03/15 10:59:49;;;;;;;10.83;8.23;;;14.20;78.00;;;;;;5034111;28;20964;-53
2022/03/15 11:02:16;;;;;;;9.40;8.40;;;14.20;77.50;;;;;;5033658;28;20972;-55
2022/03/15 11:04:47;;;;;;;29.03;10.40;;;14.20;77.00;;;;;;5033760;28;20457;-56
2022/03/15 11:07:16;;;;;;;10.93;8.90;;;14.20;76.80;;;;;;5033488;28;20457;-56
2022/03/15 11:09:44;;;;;;;10.83;8.40;;;14.20;76.80;;;;;;5032447;28;20504;-55
2022/03/15 11:12:11;;;;;;;14.80;8.97;;;14.30;75.10;;;;;;5033727;28;20465;-55
2022/03/15 11:14:44;;;;;;;10.57;9.00;;;14.30;74.50;;;;;;5033708;28;20452;-54
2022/03/15 11:17:14;;;;;;;15.30;10.77;;;14.40;74.10;;;;;;5033044;28;20434;-55
2022/03/15 11:19:45;;;;;;;13.27;8.80;;;14.50;73.70;;;;;;5033313;28;20493;-55
2022/03/15 11:22:16;;;;;;;12.68;10.45;;;14.60;73.20;;;;;;5032823;28;20446;-54
2022/03/15 11:24:46;;;;;;;11.27;10.17;;;14.70;72.70;;;;;;5033676;28;20183;-55
2022/03/15 11:27:16;;;;;;;10.93;8.13;;;14.80;72.20;;;;;;5033130;28;20567;-54
2022/03/15 11:29:45;;;;;;;8.90;7.30;;;14.90;71.80;;;;;;5033676;28;20496;-56
2022/03/15 11:32:14;;;;;;;9.00;6.60;;;15.00;71.30;;;;;;5033243;28;20515;-56
2022/03/15 11:34:41;;;;;;;11.27;7.25;;;15.10;70.50;;;;;;5032492;28;20448;-57
2022/03/15 11:37:11;;;;;;;9.37;7.10;;;15.10;67.80;;;;;;5033314;28;20210;-56
2022/03/15 11:39:41;;;;;;;7.47;6.70;;;15.20;67.40;;;;;;5033634;28;20815;-56
2022/03/15 11:42:12;;;;;;;10.13;7.72;;;15.10;67.00;;;;;;5033081;28;20524;-56
2022/03/15 11:44:50;;;;;;;10.73;7.20;;;15.20;67.00;;;;;;5033046;28;20501;-57
2022/03/15 11:47:26;;;;;;;12.03;8.27;;;15.30;66.90;;;;;;5033043;28;20433;-56
2022/03/15 11:50:00;;;;;;;10.13;8.27;;;15.40;66.50;;;;;;5032854;28;20479;-58
2022/03/15 11:52:34;;;;;;;35.27;26.10;;;15.40;66.20;;;;;;5033247;28;20527;-56
2022/03/15 11:55:12;;;;;;;9.50;6.57;;;15.40;66.00;;;;;;5033384;28;20440;-57
2022/03/15 11:57:47;;;;;;;9.93;6.40;;;15.40;65.70;;;;;;5032983;28;20426;-57
2022/03/15 12:00:30;;;;;;;7.33;6.17;;;15.30;65.10;;;;;;5032829;28;20425;-56
2022/03/15 12:02:59;;;;;;;7.60;5.77;;;15.20;64.70;;;;;;5032703;28;20433;-57
2022/03/15 12:05:27;;;;;;;9.60;7.10;;;15.20;64.40;;;;;;5033444;28;20499;-56
2022/03/15 12:08:12;;;;;;;12.83;6.67;;;15.20;64.00;;;;;;5032999;28;20456;-57
2022/03/15 12:10:47;;;;;;;9.07;6.40;;;15.30;63.90;;;;;;5032918;28;20469;-57
2022/03/15 12:13:15;;;;;;;7.90;6.63;;;15.20;64.00;;;;;;5033013;28;20433;-56
2022/03/15 12:15:44;;;;;;;7.00;6.30;;;15.30;63.90;;;;;;5033003;28;20498;-56
2022/03/15 12:21:02;;;;;;;7.10;6.00;;;15.30;62.60;;;;;;5032293;28;20534;-56
2022/03/15 12:23:39;;;;;;;9.93;6.40;;;15.00;63.10;;;;;;5032975;28;20429;-56
2022/03/15 12:26:22;;;;;;;11.13;6.23;;;14.90;63.80;;;;;;5032683;28;20432;-57
2022/03/15 12:29:02;;;;;;;7.57;5.60;;;14.90;63.60;;;;;;5032668;28;20999;-56
2022/03/15 12:31:39;;;;;;;9.80;6.10;;;15.00;63.00;;;;;;5036242;28;20992;-56
2022/03/15 12:34:08;;;;;;;9.10;6.50;;;15.20;62.70;;;;;;5036451;28;20468;-54
2022/03/15 12:36:48;;;;;;;8.80;6.57;;;15.30;62.30;;;;;;5036690;28;20818;-56
2022/03/15 12:39:18;;;;;;;7.33;5.63;;;15.40;61.70;;;;;;5036846;28;20786;-56
2022/03/15 12:41:47;;;;;;;10.17;7.07;;;15.50;61.20;;;;;;5036435;28;20977;-58
2022/03/15 12:44:14;;;;;;;9.07;6.33;;;15.50;61.20;;;;;;5036096;28;20945;-56
2022/03/15 12:46:43;;;;;;;10.37;6.37;;;15.50;60.90;;;;;;5036290;28;20963;-56
2022/03/15 12:49:13;;;;;;;6.80;5.60;;;15.40;60.80;;;;;;5036112;28;20445;-57